sensor_id;sensor_type;location;lat;lon;timestamp;temperature;humidity
67131;HTU21D;54051;53.464;49.532;2023-09-08T00:00:42;10.72;77.78
67131;HTU21D;54051;53.464;49.532;2023-09-08T00:03:08;10.72;77.71
67131;HTU21D;54051;53.464;49.532;2023-09-08T00:05:34;10.72;77.74
67131;HTU21D;54051;53.464;49.532;2023-09-08T00:08:00;10.71;77.88
67131;HTU21D;54051;53.464;49.532;2023-09-08T00:10:25;10.70;77.92
67131;HTU21D;54051;53.464;49.532;2023-09-08T00:12:51;10.64;78.00
67131;HTU21D;54051;53.464;49.532;2023-09-08T00:15:17;10.57;78.17
67131;HTU21D;54051;53.464;49.532;2023-09-08T00:17:43;10.62;77.89
67131;HTU21D;54051;53.464;49.532;2023-09-08T00:20:09;10.62;77.60
67131;HTU21D;54051;53.464;49.532;2023-09-08T00:22:39;10.67;77.52
67131;HTU21D;54051;53.464;49.532;2023-09-08T00:25:05;10.80;77.01
67131;HTU21D;54051;53.464;49.532;2023-09-08T00:27:31;10.80;76.82
67131;HTU21D;54051;53.464;49.532;2023-09-08T00:29:57;10.74;76.88
67131;HTU21D;54051;53.464;49.532;2023-09-08T00:32:23;10.65;77.31
67131;HTU21D;54051;53.464;49.532;2023-09-08T00:34:49;10.53;77.83
67131;HTU21D;54051;53.464;49.532;2023-09-08T00:37:15;10.42;78.64
67131;HTU21D;54051;53.464;49.532;2023-09-08T00:39:41;10.39;78.90
67131;HTU21D;54051;53.464;49.532;2023-09-08T00:42:07;10.40;79.01
67131;HTU21D;54051;53.464;49.532;2023-09-08T00:44:33;10.35;79.13
67131;HTU21D;54051;53.464;49.532;2023-09-08T00:46:59;10.34;79.30
67131;HTU21D;54051;53.464;49.532;2023-09-08T00:49:25;10.34;79.32
67131;HTU21D;54051;53.464;49.532;2023-09-08T00:51:51;10.33;79.17
67131;HTU21D;54051;53.464;49.532;2023-09-08T00:54:17;10.28;79.28
67131;HTU21D;54051;53.464;49.532;2023-09-08T00:56:43;10.23;79.51
67131;HTU21D;54051;53.464;49.532;2023-09-08T00:59:10;10.22;79.55
67131;HTU21D;54051;53.464;49.532;2023-09-08T01:01:35;10.18;79.75
67131;HTU21D;54051;53.464;49.532;2023-09-08T01:04:01;10.15;79.91
67131;HTU21D;54051;53.464;49.532;2023-09-08T01:06:27;10.10;79.98
67131;HTU21D;54051;53.464;49.532;2023-09-08T01:08:54;10.06;80.24
67131;HTU21D;54051;53.464;49.532;2023-09-08T01:11:23;10.04;80.24
67131;HTU21D;54051;53.464;49.532;2023-09-08T01:13:49;9.99;80.47
67131;HTU21D;54051;53.464;49.532;2023-09-08T01:16:15;9.96;80.46
67131;HTU21D;54051;53.464;49.532;2023-09-08T01:18:41;9.94;80.64
67131;HTU21D;54051;53.464;49.532;2023-09-08T01:26:20;9.92;80.60
67131;HTU21D;54051;53.464;49.532;2023-09-08T01:28:48;9.92;80.48
67131;HTU21D;54051;53.464;49.532;2023-09-08T01:31:14;9.90;80.59
67131;HTU21D;54051;53.464;49.532;2023-09-08T01:33:40;9.90;80.44
67131;HTU21D;54051;53.464;49.532;2023-09-08T01:36:07;9.86;80.67
67131;HTU21D;54051;53.464;49.532;2023-09-08T01:38:33;9.84;80.72
67131;HTU21D;54051;53.464;49.532;2023-09-08T01:40:59;9.81;80.62
67131;HTU21D;54051;53.464;49.532;2023-09-08T01:43:27;9.79;80.77
67131;HTU21D;54051;53.464;49.532;2023-09-08T01:45:53;9.78;80.76
67131;HTU21D;54051;53.464;49.532;2023-09-08T01:48:19;9.77;80.74
67131;HTU21D;54051;53.464;49.532;2023-09-08T01:50:44;9.78;80.65
67131;HTU21D;54051;53.464;49.532;2023-09-08T01:53:12;9.79;80.59
67131;HTU21D;54051;53.464;49.532;2023-09-08T01:55:37;9.79;80.46
67131;HTU21D;54051;53.464;49.532;2023-09-08T01:58:03;9.82;80.31
67131;HTU21D;54051;53.464;49.532;2023-09-08T02:00:29;9.79;80.41
67131;HTU21D;54051;53.464;49.532;2023-09-08T02:02:55;9.78;80.47
67131;HTU21D;54051;53.464;49.532;2023-09-08T02:05:20;9.80;80.48
67131;HTU21D;54051;53.464;49.532;2023-09-08T02:07:46;9.75;80.62
67131;HTU21D;54051;53.464;49.532;2023-09-08T02:10:12;9.75;80.67
67131;HTU21D;54051;53.464;49.532;2023-09-08T02:12:38;9.80;80.57
67131;HTU21D;54051;53.464;49.532;2023-09-08T02:15:04;9.83;80.27
67131;HTU21D;54051;53.464;49.532;2023-09-08T02:17:30;9.80;80.37
67131;HTU21D;54051;53.464;49.532;2023-09-08T02:19:56;9.84;80.30
67131;HTU21D;54051;53.464;49.532;2023-09-08T02:22:22;9.93;79.88
67131;HTU21D;54051;53.464;49.532;2023-09-08T02:24:47;9.98;79.45
67131;HTU21D;54051;53.464;49.532;2023-09-08T02:27:13;10.05;79.19
67131;HTU21D;54051;53.464;49.532;2023-09-08T02:29:39;10.06;79.05
67131;HTU21D;54051;53.464;49.532;2023-09-08T02:32:05;10.07;78.99
67131;HTU21D;54051;53.464;49.532;2023-09-08T02:34:33;10.12;78.86
67131;HTU21D;54051;53.464;49.532;2023-09-08T02:37:02;10.22;78.46
67131;HTU21D;54051;53.464;49.532;2023-09-08T02:39:27;10.27;78.25
67131;HTU21D;54051;53.464;49.532;2023-09-08T02:41:53;10.26;78.24
67131;HTU21D;54051;53.464;49.532;2023-09-08T02:44:20;10.29;78.27
67131;HTU21D;54051;53.464;49.532;2023-09-08T02:46:47;10.33;78.11
67131;HTU21D;54051;53.464;49.532;2023-09-08T02:49:13;10.37;78.07
67131;HTU21D;54051;53.464;49.532;2023-09-08T02:51:39;10.44;77.90
67131;HTU21D;54051;53.464;49.532;2023-09-08T02:54:05;10.54;77.52
67131;HTU21D;54051;53.464;49.532;2023-09-08T02:56:30;10.53;77.20
67131;HTU21D;54051;53.464;49.532;2023-09-08T02:58:56;10.49;77.64
67131;HTU21D;54051;53.464;49.532;2023-09-08T03:01:22;10.57;77.31
67131;HTU21D;54051;53.464;49.532;2023-09-08T03:03:48;10.56;77.19
67131;HTU21D;54051;53.464;49.532;2023-09-08T03:06:14;10.62;77.03
67131;HTU21D;54051;53.464;49.532;2023-09-08T03:08:40;10.69;76.63
67131;HTU21D;54051;53.464;49.532;2023-09-08T03:11:07;10.75;76.30
67131;HTU21D;54051;53.464;49.532;2023-09-08T03:13:34;10.78;76.19
67131;HTU21D;54051;53.464;49.532;2023-09-08T03:16:04;10.80;76.23
67131;HTU21D;54051;53.464;49.532;2023-09-08T03:18:31;10.85;76.12
67131;HTU21D;54051;53.464;49.532;2023-09-08T03:20:58;10.87;76.00
67131;HTU21D;54051;53.464;49.532;2023-09-08T03:23:24;10.99;75.72
67131;HTU21D;54051;53.464;49.532;2023-09-08T03:25:50;11.05;75.25
67131;HTU21D;54051;53.464;49.532;2023-09-08T03:28:16;11.09;75.25
67131;HTU21D;54051;53.464;49.532;2023-09-08T03:30:41;11.23;74.59
67131;HTU21D;54051;53.464;49.532;2023-09-08T03:33:07;11.33;74.24
67131;HTU21D;54051;53.464;49.532;2023-09-08T03:35:33;11.43;73.73
67131;HTU21D;54051;53.464;49.532;2023-09-08T03:37:59;11.59;73.25
67131;HTU21D;54051;53.464;49.532;2023-09-08T03:40:25;11.76;72.48
67131;HTU21D;54051;53.464;49.532;2023-09-08T03:42:51;12.78;69.74
67131;HTU21D;54051;53.464;49.532;2023-09-08T03:45:17;17.35;53.71
67131;HTU21D;54051;53.464;49.532;2023-09-08T03:47:43;21.30;42.13
67131;HTU21D;54051;53.464;49.532;2023-09-08T03:50:08;23.70;36.18
67131;HTU21D;54051;53.464;49.532;2023-09-08T03:52:35;25.38;32.28
67131;HTU21D;54051;53.464;49.532;2023-09-08T03:55:01;25.99;30.21
67131;HTU21D;54051;53.464;49.532;2023-09-08T03:57:27;26.31;30.28
67131;HTU21D;54051;53.464;49.532;2023-09-08T03:59:52;27.41;28.21
67131;HTU21D;54051;53.464;49.532;2023-09-08T04:02:18;28.88;25.72
67131;HTU21D;54051;53.464;49.532;2023-09-08T04:04:44;29.09;24.63
67131;HTU21D;54051;53.464;49.532;2023-09-08T04:07:10;29.04;24.90
67131;HTU21D;54051;53.464;49.532;2023-09-08T04:09:36;29.38;24.31
67131;HTU21D;54051;53.464;49.532;2023-09-08T04:12:01;30.05;23.33
67131;HTU21D;54051;53.464;49.532;2023-09-08T04:14:27;31.13;21.77
67131;HTU21D;54051;53.464;49.532;2023-09-08T04:16:54;30.87;21.73
67131;HTU21D;54051;53.464;49.532;2023-09-08T04:19:19;30.03;22.93
67131;HTU21D;54051;53.464;49.532;2023-09-08T04:21:45;29.59;23.56
67131;HTU21D;54051;53.464;49.532;2023-09-08T04:24:11;30.42;22.57
67131;HTU21D;54051;53.464;49.532;2023-09-08T04:26:37;30.75;21.73
67131;HTU21D;54051;53.464;49.532;2023-09-08T04:29:03;30.90;21.37
67131;HTU21D;54051;53.464;49.532;2023-09-08T04:31:28;30.25;22.17
67131;HTU21D;54051;53.464;49.532;2023-09-08T04:33:54;30.02;22.83
67131;HTU21D;54051;53.464;49.532;2023-09-08T04:36:20;30.82;21.15
67131;HTU21D;54051;53.464;49.532;2023-09-08T04:38:46;30.49;21.77
67131;HTU21D;54051;53.464;49.532;2023-09-08T04:41:12;30.63;21.61
67131;HTU21D;54051;53.464;49.532;2023-09-08T04:43:37;30.74;20.87
67131;HTU21D;54051;53.464;49.532;2023-09-08T04:46:03;30.67;20.79
67131;HTU21D;54051;53.464;49.532;2023-09-08T04:48:29;31.20;20.44
67131;HTU21D;54051;53.464;49.532;2023-09-08T04:50:56;31.87;19.56
67131;HTU21D;54051;53.464;49.532;2023-09-08T04:53:22;31.99;18.64
67131;HTU21D;54051;53.464;49.532;2023-09-08T04:55:47;32.37;18.90
67131;HTU21D;54051;53.464;49.532;2023-09-08T04:58:13;33.79;16.90
67131;HTU21D;54051;53.464;49.532;2023-09-08T05:00:39;34.99;15.26
67131;HTU21D;54051;53.464;49.532;2023-09-08T05:03:06;35.18;15.16
67131;HTU21D;54051;53.464;49.532;2023-09-08T05:05:32;35.86;14.36
67131;HTU21D;54051;53.464;49.532;2023-09-08T05:07:58;36.61;13.51
67131;HTU21D;54051;53.464;49.532;2023-09-08T05:10:24;37.10;12.54
67131;HTU21D;54051;53.464;49.532;2023-09-08T05:12:50;37.06;12.72
67131;HTU21D;54051;53.464;49.532;2023-09-08T05:15:16;37.11;12.68
67131;HTU21D;54051;53.464;49.532;2023-09-08T05:17:42;37.60;11.79
67131;HTU21D;54051;53.464;49.532;2023-09-08T05:20:09;37.97;11.25
67131;HTU21D;54051;53.464;49.532;2023-09-08T05:22:35;37.74;11.33
67131;HTU21D;54051;53.464;49.532;2023-09-08T05:25:02;37.42;10.98
67131;HTU21D;54051;53.464;49.532;2023-09-08T05:27:28;36.63;11.37
67131;HTU21D;54051;53.464;49.532;2023-09-08T05:29:53;36.96;11.23
67131;HTU21D;54051;53.464;49.532;2023-09-08T05:32:19;37.30;10.43
67131;HTU21D;54051;53.464;49.532;2023-09-08T05:34:45;37.95;9.86
67131;HTU21D;54051;53.464;49.532;2023-09-08T05:37:11;37.56;10.33
67131;HTU21D;54051;53.464;49.532;2023-09-08T05:39:37;36.64;10.85
67131;HTU21D;54051;53.464;49.532;2023-09-08T05:42:03;36.07;11.88
67131;HTU21D;54051;53.464;49.532;2023-09-08T05:44:29;36.44;11.33
67131;HTU21D;54051;53.464;49.532;2023-09-08T05:46:55;36.04;12.00
67131;HTU21D;54051;53.464;49.532;2023-09-08T05:49:20;36.32;11.69
67131;HTU21D;54051;53.464;49.532;2023-09-08T05:51:46;36.04;12.28
67131;HTU21D;54051;53.464;49.532;2023-09-08T05:54:12;37.10;10.94
67131;HTU21D;54051;53.464;49.532;2023-09-08T05:56:38;36.12;11.50
67131;HTU21D;54051;53.464;49.532;2023-09-08T05:59:04;35.84;11.75
67131;HTU21D;54051;53.464;49.532;2023-09-08T06:01:30;35.78;11.97
67131;HTU21D;54051;53.464;49.532;2023-09-08T06:03:56;35.66;12.25
67131;HTU21D;54051;53.464;49.532;2023-09-08T06:06:22;35.42;11.72
67131;HTU21D;54051;53.464;49.532;2023-09-08T06:08:48;35.59;12.14
67131;HTU21D;54051;53.464;49.532;2023-09-08T06:11:14;36.19;11.01
67131;HTU21D;54051;53.464;49.532;2023-09-08T06:13:40;36.61;11.14
67131;HTU21D;54051;53.464;49.532;2023-09-08T06:16:06;38.09;9.63
67131;HTU21D;54051;53.464;49.532;2023-09-08T06:18:32;38.36;8.89
67131;HTU21D;54051;53.464;49.532;2023-09-08T06:20:59;37.13;10.00
67131;HTU21D;54051;53.464;49.532;2023-09-08T06:23:25;37.10;9.29
67131;HTU21D;54051;53.464;49.532;2023-09-08T06:25:51;33.33;12.91
67131;HTU21D;54051;53.464;49.532;2023-09-08T06:28:16;34.60;11.97
67131;HTU21D;54051;53.464;49.532;2023-09-08T06:30:42;32.07;15.13
67131;HTU21D;54051;53.464;49.532;2023-09-08T06:33:08;30.87;16.61
67131;HTU21D;54051;53.464;49.532;2023-09-08T06:35:34;29.82;17.75
67131;HTU21D;54051;53.464;49.532;2023-09-08T06:38:00;27.52;21.50
67131;HTU21D;54051;53.464;49.532;2023-09-08T06:40:26;27.11;22.48
67131;HTU21D;54051;53.464;49.532;2023-09-08T06:42:52;28.93;18.91
67131;HTU21D;54051;53.464;49.532;2023-09-08T06:45:17;27.30;19.89
67131;HTU21D;54051;53.464;49.532;2023-09-08T06:47:43;24.82;24.85
67131;HTU21D;54051;53.464;49.532;2023-09-08T06:50:09;24.49;25.97
67131;HTU21D;54051;53.464;49.532;2023-09-08T06:52:35;23.84;27.03
67131;HTU21D;54051;53.464;49.532;2023-09-08T06:55:01;22.36;30.54
67131;HTU21D;54051;53.464;49.532;2023-09-08T06:57:27;21.09;33.38
67131;HTU21D;54051;53.464;49.532;2023-09-08T06:59:53;20.14;36.66
67131;HTU21D;54051;53.464;49.532;2023-09-08T07:02:18;19.42;38.68
67131;HTU21D;54051;53.464;49.532;2023-09-08T07:04:44;19.09;38.78
67131;HTU21D;54051;53.464;49.532;2023-09-08T07:07:11;19.03;39.19
67131;HTU21D;54051;53.464;49.532;2023-09-08T07:09:36;19.63;38.47
67131;HTU21D;54051;53.464;49.532;2023-09-08T07:12:05;22.50;31.75
67131;HTU21D;54051;53.464;49.532;2023-09-08T07:14:34;22.46;31.67
67131;HTU21D;54051;53.464;49.532;2023-09-08T07:17:00;21.11;34.86
67131;HTU21D;54051;53.464;49.532;2023-09-08T07:19:26;20.79;35.50
67131;HTU21D;54051;53.464;49.532;2023-09-08T07:21:52;20.63;35.90
67131;HTU21D;54051;53.464;49.532;2023-09-08T07:24:18;20.90;34.11
67131;HTU21D;54051;53.464;49.532;2023-09-08T07:26:44;20.74;34.73
67131;HTU21D;54051;53.464;49.532;2023-09-08T07:29:10;20.40;36.23
67131;HTU21D;54051;53.464;49.532;2023-09-08T07:31:37;20.94;36.01
67131;HTU21D;54051;53.464;49.532;2023-09-08T07:34:04;21.37;34.75
67131;HTU21D;54051;53.464;49.532;2023-09-08T07:36:30;21.39;33.96
67131;HTU21D;54051;53.464;49.532;2023-09-08T07:38:55;21.39;34.62
67131;HTU21D;54051;53.464;49.532;2023-09-08T07:41:21;21.33;34.52
67131;HTU21D;54051;53.464;49.532;2023-09-08T07:43:47;20.89;35.08
67131;HTU21D;54051;53.464;49.532;2023-09-08T07:46:13;21.21;33.89
67131;HTU21D;54051;53.464;49.532;2023-09-08T07:48:39;22.36;33.12
67131;HTU21D;54051;53.464;49.532;2023-09-08T07:51:05;26.86;23.72
67131;HTU21D;54051;53.464;49.532;2023-09-08T07:53:31;27.97;22.48
67131;HTU21D;54051;53.464;49.532;2023-09-08T07:55:57;26.23;24.46
67131;HTU21D;54051;53.464;49.532;2023-09-08T07:58:23;24.34;27.48
67131;HTU21D;54051;53.464;49.532;2023-09-08T08:00:49;23.11;29.62
67131;HTU21D;54051;53.464;49.532;2023-09-08T08:03:15;23.70;28.61
67131;HTU21D;54051;53.464;49.532;2023-09-08T08:05:41;26.95;23.13
67131;HTU21D;54051;53.464;49.532;2023-09-08T08:08:07;29.04;20.69
67131;HTU21D;54051;53.464;49.532;2023-09-08T08:10:35;30.12;18.80
67131;HTU21D;54051;53.464;49.532;2023-09-08T08:13:00;31.78;15.88
67131;HTU21D;54051;53.464;49.532;2023-09-08T08:15:44;32.54;15.45
67131;HTU21D;54051;53.464;49.532;2023-09-08T08:18:13;33.01;15.22
67131;HTU21D;54051;53.464;49.532;2023-09-08T08:20:39;31.72;16.35
67131;HTU21D;54051;53.464;49.532;2023-09-08T08:23:05;28.03;22.22
67131;HTU21D;54051;53.464;49.532;2023-09-08T08:25:31;26.32;23.82
67131;HTU21D;54051;53.464;49.532;2023-09-08T08:27:58;23.83;28.87
67131;HTU21D;54051;53.464;49.532;2023-09-08T08:30:25;23.41;30.56
67131;HTU21D;54051;53.464;49.532;2023-09-08T08:32:51;24.50;29.73
67131;HTU21D;54051;53.464;49.532;2023-09-08T08:35:21;24.06;29.73
67131;HTU21D;54051;53.464;49.532;2023-09-08T08:37:47;22.99;31.80
67131;HTU21D;54051;53.464;49.532;2023-09-08T08:40:13;22.07;34.51
67131;HTU21D;54051;53.464;49.532;2023-09-08T08:42:39;22.48;33.41
67131;HTU21D;54051;53.464;49.532;2023-09-08T08:45:05;21.38;34.86
67131;HTU21D;54051;53.464;49.532;2023-09-08T08:47:31;20.62;37.42
67131;HTU21D;54051;53.464;49.532;2023-09-08T08:49:58;20.11;39.36
67131;HTU21D;54051;53.464;49.532;2023-09-08T08:52:24;19.65;39.51
67131;HTU21D;54051;53.464;49.532;2023-09-08T08:54:51;19.72;39.78
67131;HTU21D;54051;53.464;49.532;2023-09-08T08:57:16;20.00;38.37
67131;HTU21D;54051;53.464;49.532;2023-09-08T08:59:42;20.09;38.56
67131;HTU21D;54051;53.464;49.532;2023-09-08T09:02:09;20.98;35.59
67131;HTU21D;54051;53.464;49.532;2023-09-08T09:04:37;21.98;34.15
67131;HTU21D;54051;53.464;49.532;2023-09-08T09:07:03;21.47;34.75
67131;HTU21D;54051;53.464;49.532;2023-09-08T09:09:29;20.79;35.33
67131;HTU21D;54051;53.464;49.532;2023-09-08T09:11:55;20.48;37.50
67131;HTU21D;54051;53.464;49.532;2023-09-08T09:14:21;20.57;36.33
67131;HTU21D;54051;53.464;49.532;2023-09-08T09:16:48;20.37;38.28
67131;HTU21D;54051;53.464;49.532;2023-09-08T09:19:18;20.65;37.17
67131;HTU21D;54051;53.464;49.532;2023-09-08T09:21:51;20.90;35.10
67131;HTU21D;54051;53.464;49.532;2023-09-08T09:27:04;20.44;37.70
67131;HTU21D;54051;53.464;49.532;2023-09-08T09:29:31;20.53;36.92
67131;HTU21D;54051;53.464;49.532;2023-09-08T09:32:04;20.45;35.80
67131;HTU21D;54051;53.464;49.532;2023-09-08T09:34:30;20.24;36.00
67131;HTU21D;54051;53.464;49.532;2023-09-08T09:36:56;20.18;35.31
67131;HTU21D;54051;53.464;49.532;2023-09-08T09:39:23;20.28;36.37
67131;HTU21D;54051;53.464;49.532;2023-09-08T09:41:53;20.75;35.39
67131;HTU21D;54051;53.464;49.532;2023-09-08T09:44:19;20.81;34.75
67131;HTU21D;54051;53.464;49.532;2023-09-08T09:46:45;20.64;35.88
67131;HTU21D;54051;53.464;49.532;2023-09-08T09:49:12;20.55;35.15
67131;HTU21D;54051;53.464;49.532;2023-09-08T09:51:42;20.58;34.61
67131;HTU21D;54051;53.464;49.532;2023-09-08T09:54:08;20.32;37.12
67131;HTU21D;54051;53.464;49.532;2023-09-08T09:56:34;20.44;36.48
67131;HTU21D;54051;53.464;49.532;2023-09-08T09:59:03;20.58;34.30
67131;HTU21D;54051;53.464;49.532;2023-09-08T10:01:29;20.58;34.68
67131;HTU21D;54051;53.464;49.532;2023-09-08T10:03:56;20.61;36.98
67131;HTU21D;54051;53.464;49.532;2023-09-08T10:06:23;20.48;36.05
67131;HTU21D;54051;53.464;49.532;2023-09-08T10:08:49;20.31;36.05
67131;HTU21D;54051;53.464;49.532;2023-09-08T10:11:16;20.33;38.46
67131;HTU21D;54051;53.464;49.532;2023-09-08T10:13:46;20.33;42.00
67131;HTU21D;54051;53.464;49.532;2023-09-08T10:16:12;20.20;43.57
67131;HTU21D;54051;53.464;49.532;2023-09-08T10:18:39;19.66;44.19
67131;HTU21D;54051;53.464;49.532;2023-09-08T10:21:06;19.69;40.13
67131;HTU21D;54051;53.464;49.532;2023-09-08T10:23:38;20.19;40.97
67131;HTU21D;54051;53.464;49.532;2023-09-08T10:26:08;20.07;43.41
67131;HTU21D;54051;53.464;49.532;2023-09-08T10:28:35;19.95;43.15
67131;HTU21D;54051;53.464;49.532;2023-09-08T10:31:01;19.80;44.93
67131;HTU21D;54051;53.464;49.532;2023-09-08T10:33:27;19.62;42.72
67131;HTU21D;54051;53.464;49.532;2023-09-08T10:35:54;19.56;43.26
67131;HTU21D;54051;53.464;49.532;2023-09-08T10:38:21;19.35;43.42
67131;HTU21D;54051;53.464;49.532;2023-09-08T10:40:47;19.44;41.51
67131;HTU21D;54051;53.464;49.532;2023-09-08T10:43:13;19.42;39.45
67131;HTU21D;54051;53.464;49.532;2023-09-08T10:45:39;19.24;39.67
67131;HTU21D;54051;53.464;49.532;2023-09-08T10:48:07;19.18;41.07
67131;HTU21D;54051;53.464;49.532;2023-09-08T10:50:34;19.10;40.73
67131;HTU21D;54051;53.464;49.532;2023-09-08T10:53:07;19.50;40.75
67131;HTU21D;54051;53.464;49.532;2023-09-08T10:55:37;19.82;40.57
67131;HTU21D;54051;53.464;49.532;2023-09-08T10:58:06;20.12;39.47
67131;HTU21D;54051;53.464;49.532;2023-09-08T11:00:47;20.19;38.13
67131;HTU21D;54051;53.464;49.532;2023-09-08T11:03:25;20.12;36.26
67131;HTU21D;54051;53.464;49.532;2023-09-08T11:05:52;19.92;36.89
67131;HTU21D;54051;53.464;49.532;2023-09-08T11:08:18;19.68;34.74
67131;HTU21D;54051;53.464;49.532;2023-09-08T11:10:44;19.35;35.77
67131;HTU21D;54051;53.464;49.532;2023-09-08T11:13:11;19.06;36.72
67131;HTU21D;54051;53.464;49.532;2023-09-08T11:15:37;19.14;37.11
67131;HTU21D;54051;53.464;49.532;2023-09-08T11:18:06;19.09;37.66
67131;HTU21D;54051;53.464;49.532;2023-09-08T11:20:33;18.85;36.58
67131;HTU21D;54051;53.464;49.532;2023-09-08T11:23:00;18.80;40.19
67131;HTU21D;54051;53.464;49.532;2023-09-08T11:25:26;18.73;39.75
67131;HTU21D;54051;53.464;49.532;2023-09-08T11:27:52;18.67;41.52
67131;HTU21D;54051;53.464;49.532;2023-09-08T11:30:18;18.85;39.99
67131;HTU21D;54051;53.464;49.532;2023-09-08T11:32:44;19.05;40.20
67131;HTU21D;54051;53.464;49.532;2023-09-08T11:35:11;18.94;41.63
67131;HTU21D;54051;53.464;49.532;2023-09-08T11:37:37;18.77;43.00
67131;HTU21D;54051;53.464;49.532;2023-09-08T11:40:04;18.57;43.88
67131;HTU21D;54051;53.464;49.532;2023-09-08T11:42:40;18.30;44.32
67131;HTU21D;54051;53.464;49.532;2023-09-08T11:45:13;18.40;45.28
67131;HTU21D;54051;53.464;49.532;2023-09-08T11:47:40;18.50;45.00
67131;HTU21D;54051;53.464;49.532;2023-09-08T11:50:07;18.54;45.01
67131;HTU21D;54051;53.464;49.532;2023-09-08T11:52:33;18.44;44.65
67131;HTU21D;54051;53.464;49.532;2023-09-08T11:54:59;18.62;45.31
67131;HTU21D;54051;53.464;49.532;2023-09-08T11:57:27;18.43;43.90
67131;HTU21D;54051;53.464;49.532;2023-09-08T11:59:54;18.13;44.48
67131;HTU21D;54051;53.464;49.532;2023-09-08T12:02:20;17.79;42.65
67131;HTU21D;54051;53.464;49.532;2023-09-08T12:04:46;17.63;44.13
67131;HTU21D;54051;53.464;49.532;2023-09-08T12:07:12;17.53;43.87
67131;HTU21D;54051;53.464;49.532;2023-09-08T12:09:42;17.34;45.41
67131;HTU21D;54051;53.464;49.532;2023-09-08T12:12:12;17.31;45.17
67131;HTU21D;54051;53.464;49.532;2023-09-08T12:14:41;17.28;46.60
67131;HTU21D;54051;53.464;49.532;2023-09-08T12:17:08;17.47;47.79
67131;HTU21D;54051;53.464;49.532;2023-09-08T12:19:34;17.89;48.19
67131;HTU21D;54051;53.464;49.532;2023-09-08T12:22:03;18.03;47.49
67131;HTU21D;54051;53.464;49.532;2023-09-08T12:24:49;18.04;46.90
67131;HTU21D;54051;53.464;49.532;2023-09-08T12:27:15;18.04;48.47
67131;HTU21D;54051;53.464;49.532;2023-09-08T12:30:00;18.11;47.90
67131;HTU21D;54051;53.464;49.532;2023-09-08T12:32:32;18.17;47.15
67131;HTU21D;54051;53.464;49.532;2023-09-08T12:34:59;18.17;47.22
67131;HTU21D;54051;53.464;49.532;2023-09-08T12:37:27;18.10;48.05
67131;HTU21D;54051;53.464;49.532;2023-09-08T12:39:57;17.85;48.68
67131;HTU21D;54051;53.464;49.532;2023-09-08T12:42:23;17.73;48.09
67131;HTU21D;54051;53.464;49.532;2023-09-08T12:44:55;17.67;47.68
67131;HTU21D;54051;53.464;49.532;2023-09-08T12:47:21;17.58;48.31
67131;HTU21D;54051;53.464;49.532;2023-09-08T12:49:48;17.62;47.57
67131;HTU21D;54051;53.464;49.532;2023-09-08T12:52:14;17.66;47.65
67131;HTU21D;54051;53.464;49.532;2023-09-08T12:54:40;17.87;46.85
67131;HTU21D;54051;53.464;49.532;2023-09-08T12:57:06;18.05;45.64
67131;HTU21D;54051;53.464;49.532;2023-09-08T12:59:33;18.11;44.43
67131;HTU21D;54051;53.464;49.532;2023-09-08T13:01:59;17.96;44.62
67131;HTU21D;54051;53.464;49.532;2023-09-08T13:04:25;18.00;44.68
67131;HTU21D;54051;53.464;49.532;2023-09-08T13:06:51;17.94;42.68
67131;HTU21D;54051;53.464;49.532;2023-09-08T13:09:17;17.87;42.97
67131;HTU21D;54051;53.464;49.532;2023-09-08T13:11:43;17.80;42.19
67131;HTU21D;54051;53.464;49.532;2023-09-08T13:14:13;17.77;42.60
67131;HTU21D;54051;53.464;49.532;2023-09-08T13:16:39;17.64;44.02
67131;HTU21D;54051;53.464;49.532;2023-09-08T13:19:05;17.65;46.41
67131;HTU21D;54051;53.464;49.532;2023-09-08T13:21:31;17.49;43.14
67131;HTU21D;54051;53.464;49.532;2023-09-08T13:23:57;17.32;43.52
67131;HTU21D;54051;53.464;49.532;2023-09-08T13:26:23;17.23;43.80
67131;HTU21D;54051;53.464;49.532;2023-09-08T13:28:49;17.23;43.51
67131;HTU21D;54051;53.464;49.532;2023-09-08T13:31:15;17.05;43.93
67131;HTU21D;54051;53.464;49.532;2023-09-08T13:33:40;17.03;43.17
67131;HTU21D;54051;53.464;49.532;2023-09-08T13:36:06;16.87;43.21
67131;HTU21D;54051;53.464;49.532;2023-09-08T13:38:32;16.79;43.30
67131;HTU21D;54051;53.464;49.532;2023-09-08T13:40:58;16.80;43.41
67131;HTU21D;54051;53.464;49.532;2023-09-08T13:43:24;16.79;43.75
67131;HTU21D;54051;53.464;49.532;2023-09-08T13:45:50;16.76;44.63
67131;HTU21D;54051;53.464;49.532;2023-09-08T13:48:16;16.85;44.51
67131;HTU21D;54051;53.464;49.532;2023-09-08T13:50:41;16.89;42.68
67131;HTU21D;54051;53.464;49.532;2023-09-08T13:53:07;16.92;42.55
67131;HTU21D;54051;53.464;49.532;2023-09-08T13:55:33;16.96;43.20
67131;HTU21D;54051;53.464;49.532;2023-09-08T13:57:59;17.00;43.12
67131;HTU21D;54051;53.464;49.532;2023-09-08T14:00:25;16.94;43.35
67131;HTU21D;54051;53.464;49.532;2023-09-08T14:02:50;16.89;44.12
67131;HTU21D;54051;53.464;49.532;2023-09-08T14:05:17;16.74;44.10
67131;HTU21D;54051;53.464;49.532;2023-09-08T14:07:42;16.61;46.06
67131;HTU21D;54051;53.464;49.532;2023-09-08T14:10:08;16.48;44.48
67131;HTU21D;54051;53.464;49.532;2023-09-08T14:12:35;16.37;45.02
67131;HTU21D;54051;53.464;49.532;2023-09-08T14:15:00;16.41;44.78
67131;HTU21D;54051;53.464;49.532;2023-09-08T14:17:30;16.32;45.22
67131;HTU21D;54051;53.464;49.532;2023-09-08T14:19:56;16.31;45.86
67131;HTU21D;54051;53.464;49.532;2023-09-08T14:22:21;16.30;45.80
67131;HTU21D;54051;53.464;49.532;2023-09-08T14:24:48;16.33;45.78
67131;HTU21D;54051;53.464;49.532;2023-09-08T14:27:14;16.33;45.22
67131;HTU21D;54051;53.464;49.532;2023-09-08T14:29:40;16.25;45.53
67131;HTU21D;54051;53.464;49.532;2023-09-08T14:32:06;16.11;45.43
67131;HTU21D;54051;53.464;49.532;2023-09-08T14:34:32;15.97;45.84
67131;HTU21D;54051;53.464;49.532;2023-09-08T14:36:58;15.82;47.72
67131;HTU21D;54051;53.464;49.532;2023-09-08T14:39:24;15.76;47.92
67131;HTU21D;54051;53.464;49.532;2023-09-08T14:41:50;15.70;48.27
67131;HTU21D;54051;53.464;49.532;2023-09-08T14:44:18;15.62;47.12
67131;HTU21D;54051;53.464;49.532;2023-09-08T14:46:46;15.58;48.02
67131;HTU21D;54051;53.464;49.532;2023-09-08T14:49:12;15.45;48.34
67131;HTU21D;54051;53.464;49.532;2023-09-08T14:51:41;15.13;49.51
67131;HTU21D;54051;53.464;49.532;2023-09-08T14:54:07;14.93;50.53
67131;HTU21D;54051;53.464;49.532;2023-09-08T14:56:33;14.86;50.81
67131;HTU21D;54051;53.464;49.532;2023-09-08T14:58:59;14.84;51.04
67131;HTU21D;54051;53.464;49.532;2023-09-08T15:01:25;14.83;52.01
67131;HTU21D;54051;53.464;49.532;2023-09-08T15:03:51;14.75;51.69
67131;HTU21D;54051;53.464;49.532;2023-09-08T15:06:17;14.73;51.95